Time;durP1;ratioP1;P1;durP2;ratioP2;P2;SDS_P1;SDS_P2;PMS_P1;PMS_P2;Temp;Humidity;BMP_temperature;BMP_pressure;BME280_temperature;BME280_humidity;BME280_pressure;Samples;Min_cycle;Max_cycle;Signal;HPM_P1;HPM_P2
2022/07/18 00:00:50;;;;;;;3.58;3.10;;;;;;;11.22;100.00;99662.39;2200075;80;21084;-89
2022/07/18 00:03:51;;;;;;;4.67;2.70;;;;;;;11.19;100.00;99661.91;2192070;80;21002;-88
2022/07/18 00:06:52;;;;;;;2.98;2.70;;;;;;;11.14;100.00;99670.72;2190243;80;21054;-87
2022/07/18 00:09:52;;;;;;;3.40;2.42;;;;;;;11.09;100.00;99669.91;2182182;80;21517;-88
2022/07/18 00:12:53;;;;;;;4.20;2.90;;;;;;;11.08;100.00;99668.27;2187111;80;21002;-88
2022/07/18 00:15:54;;;;;;;5.45;2.70;;;;;;;11.05;100.00;99672.50;2175573;79;21583;-88
2022/07/18 00:18:55;;;;;;;3.45;2.22;;;;;;;11.02;100.00;99674.14;2178369;80;21006;-87
2022/07/18 00:21:56;;;;;;;3.70;2.92;;;;;;;10.98;100.00;99672.34;2187890;80;21096;-87
2022/07/18 00:24:57;;;;;;;5.55;3.20;;;;;;;10.95;100.00;99668.70;2208932;80;21449;-87
2022/07/18 00:27:58;;;;;;;2.72;2.42;;;;;;;10.92;100.00;99669.52;2195353;80;21303;-87
2022/07/18 00:30:58;;;;;;;6.12;2.50;;;;;;;10.91;100.00;99672.63;2196833;80;21029;-87
2022/07/18 00:33:59;;;;;;;4.17;3.00;;;;;;;10.89;100.00;99671.98;2202374;81;21006;-86
2022/07/18 00:37:00;;;;;;;4.50;3.00;;;;;;;10.88;100.00;99669.48;2188339;80;21040;-87
2022/07/18 00:40:00;;;;;;;4.70;3.12;;;;;;;10.85;100.00;99666.70;2201670;80;20997;-87
2022/07/18 00:43:01;;;;;;;5.90;3.47;;;;;;;10.83;100.00;99669.48;2190640;80;20995;-87
2022/07/18 00:46:01;;;;;;;4.60;3.05;;;;;;;10.81;100.00;99668.83;2193231;80;21097;-88
2022/07/18 00:49:02;;;;;;;5.40;3.33;;;;;;;10.79;100.00;99663.42;2199616;80;21045;-88
2022/07/18 00:52:03;;;;;;;3.77;2.87;;;;;;;10.76;100.00;99655.38;2201608;80;21025;-87
2022/07/18 00:55:04;;;;;;;4.85;2.90;;;;;;;10.74;100.00;99659.95;2205737;80;21333;-88
2022/07/18 00:58:04;;;;;;;2.75;2.55;;;;;;;10.73;100.00;99659.63;2195718;80;21026;-85
2022/07/18 01:04:24;;;;;;;3.12;2.90;;;;;;;10.72;100.00;99657.98;2202350;80;21068;-87
2022/07/18 01:07:25;;;;;;;6.80;3.22;;;;;;;10.71;100.00;99660.28;2201402;80;21014;-87
2022/07/18 01:10:26;;;;;;;3.77;3.35;;;;;;;10.69;100.00;99653.04;2200687;80;21025;-87
2022/07/18 01:13:26;;;;;;;3.62;3.37;;;;;;;10.70;100.00;99656.02;2206758;81;21140;-87
2022/07/18 01:16:27;;;;;;;5.33;2.77;;;;;;;10.67;100.00;99653.69;2207715;80;21066;-87
2022/07/18 01:19:28;;;;;;;6.35;3.17;;;;;;;10.66;100.00;99655.16;2207480;80;20982;-89
2022/07/18 01:22:29;;;;;;;3.55;2.80;;;;;;;10.66;100.00;99655.16;2178462;80;21027;-87
2022/07/18 01:25:29;;;;;;;3.77;3.47;;;;;;;10.65;100.00;99658.77;2190471;80;20991;-87
2022/07/18 01:28:30;;;;;;;5.75;3.33;;;;;;;10.66;100.00;99651.23;2201166;80;21072;-87
2022/07/18 01:31:33;;;;;;;5.75;3.30;;;;;;;10.67;100.00;99652.39;2197999;81;21005;-87
2022/07/18 01:34:33;;;;;;;5.25;3.35;;;;;;;10.65;100.00;99647.80;2194914;80;21046;-86
2022/07/18 01:37:34;;;;;;;5.40;3.10;;;;;;;10.64;100.00;99649.27;2184273;80;21502;-86
2022/07/18 01:40:35;;;;;;;4.85;3.50;;;;;;;10.58;100.00;99655.12;2184149;80;21088;-86
2022/07/18 01:43:37;;;;;;;5.22;3.27;;;;;;;10.52;100.00;99657.90;2206720;80;21025;-85
2022/07/18 01:46:38;;;;;;;5.92;3.22;;;;;;;10.45;100.00;99652.45;2199266;80;21081;-85
2022/07/18 01:49:39;;;;;;;5.40;3.52;;;;;;;10.40;100.00;99659.13;2201812;80;21497;-86
2022/07/18 01:52:40;;;;;;;5.37;3.40;;;;;;;10.33;100.00;99656.30;2201504;80;21004;-87
2022/07/18 01:55:40;;;;;;;4.08;3.67;;;;;;;10.31;100.00;99656.13;2198809;80;21068;-87
2022/07/18 01:58:41;;;;;;;5.22;3.27;;;;;;;10.27;100.00;99650.87;2202202;80;20986;-86
2022/07/18 02:01:42;;;;;;;7.42;3.17;;;;;;;10.25;100.00;99655.78;2208362;80;21000;-87
2022/07/18 02:05:00;;;;;;;7.03;3.77;;;;;;;10.25;100.00;99651.04;2194273;80;21026;-87
2022/07/18 02:08:01;;;;;;;4.85;3.75;;;;;;;10.26;100.00;99647.44;2197198;80;21093;-86
2022/07/18 02:11:02;;;;;;;3.95;3.40;;;;;;;10.28;100.00;99652.03;2188998;80;21010;-82
2022/07/18 02:14:02;;;;;;;5.67;3.85;;;;;;;10.27;100.00;99660.86;2188641;80;21149;-87
2022/07/18 02:17:03;;;;;;;5.90;3.85;;;;;;;10.21;100.00;99658.81;2199860;80;21062;-88
2022/07/18 02:20:04;;;;;;;5.70;3.33;;;;;;;10.18;100.00;99667.81;2209730;80;21045;-88
2022/07/18 02:23:04;;;;;;;4.90;3.47;;;;;;;10.14;100.00;99657.78;2198531;80;21012;-87
2022/07/18 02:26:05;;;;;;;5.78;3.02;;;;;;;10.12;100.00;99658.44;2192469;80;20970;-87
2022/07/18 02:29:06;;;;;;;4.25;3.17;;;;;;;10.09;100.00;99658.75;2188720;80;21012;-87
2022/07/18 02:32:07;;;;;;;4.08;2.85;;;;;;;10.09;100.00;99657.44;2192697;80;20978;-84
2022/07/18 02:35:07;;;;;;;6.17;4.00;;;;;;;10.09;100.00;99662.19;2195393;80;21065;-83
2022/07/18 02:38:08;;;;;;;5.42;3.80;;;;;;;10.11;100.00;99658.10;2206362;80;21028;-87
2022/07/18 02:41:09;;;;;;;5.17;3.37;;;;;;;10.12;100.00;99665.80;2200468;79;21016;-87
2022/07/18 02:44:10;;;;;;;7.35;3.80;;;;;;;10.14;100.00;99669.56;2173796;80;21034;-85
2022/07/18 02:47:11;;;;;;;6.25;3.90;;;;;;;10.12;100.00;99671.03;2206262;81;21013;-86
2022/07/18 02:50:11;;;;;;;5.65;4.37;;;;;;;10.09;100.00;99675.76;2206586;81;21073;-86
2022/07/18 02:53:12;;;;;;;5.58;3.47;;;;;;;10.08;100.00;99673.63;2203867;80;21088;-88
2022/07/18 02:56:13;;;;;;;4.80;3.35;;;;;;;10.06;100.00;99674.28;2209576;80;21017;-87
2022/07/18 02:59:14;;;;;;;8.33;3.72;;;;;;;10.12;100.00;99674.95;2208971;81;21044;-87
2022/07/18 03:02:15;;;;;;;4.72;3.80;;;;;;;10.18;100.00;99673.53;2191693;80;21576;-87
2022/07/18 03:05:17;;;;;;;4.72;3.70;;;;;;;10.21;100.00;99672.73;2192075;80;21674;-88
2022/07/18 03:08:17;;;;;;;3.90;3.50;;;;;;;10.28;100.00;99670.84;2192373;80;21045;-85
2022/07/18 03:11:18;;;;;;;6.05;3.50;;;;;;;10.29;100.00;99675.92;2191386;80;21010;-86
2022/07/18 03:14:18;;;;;;;5.40;4.05;;;;;;;10.32;100.00;99676.91;2191621;80;21599;-88
2022/07/18 03:17:19;;;;;;;5.50;4.25;;;;;;;10.37;100.00;99672.53;2177940;81;21002;-86
2022/07/18 03:20:20;;;;;;;7.15;5.15;;;;;;;10.48;100.00;99673.57;2202133;80;21124;-85
2022/07/18 03:23:20;;;;;;;6.87;3.90;;;;;;;10.61;100.00;99677.91;2187760;80;21060;-87
2022/07/18 03:26:21;;;;;;;3.77;3.40;;;;;;;10.81;100.00;99683.23;2204487;80;21171;-86
2022/07/18 03:29:22;;;;;;;9.48;4.15;;;;;;;10.98;100.00;99682.00;2192888;80;21123;-86
2022/07/18 03:32:23;;;;;;;6.58;3.42;;;;;;;11.21;100.00;99686.15;2202300;80;21001;-87
2022/07/18 03:35:23;;;;;;;8.48;3.70;;;;;;;11.43;100.00;99686.88;2196054;80;21068;-87
2022/07/18 03:38:24;;;;;;;9.28;4.22;;;;;;;11.74;100.00;99691.49;2196717;80;21172;-87
2022/07/18 03:41:25;;;;;;;8.00;3.50;;;;;;;12.19;100.00;99691.02;2209436;81;21564;-87
2022/07/18 03:44:25;;;;;;;4.72;3.15;;;;;;;12.59;100.00;99691.42;2202910;80;21045;-86
2022/07/18 03:47:26;;;;;;;6.40;3.10;;;;;;;13.00;100.00;99696.55;2201784;80;21091;-86
2022/07/18 03:50:27;;;;;;;3.72;3.15;;;;;;;13.57;100.00;99690.99;2206026;80;20982;-86
2022/07/18 03:53:28;;;;;;;8.70;3.35;;;;;;;14.17;100.00;99688.84;2192146;80;21592;-86
2022/07/18 03:56:28;;;;;;;5.03;2.65;;;;;;;14.78;100.00;99684.30;2191248;80;21025;-86
2022/07/18 03:59:29;;;;;;;7.30;3.45;;;;;;;15.33;100.00;99681.09;2207135;80;20950;-86
2022/07/18 04:02:30;;;;;;;4.70;3.20;;;;;;;15.66;100.00;99678.53;2186852;80;21098;-85
2022/07/18 04:05:30;;;;;;;4.92;3.27;;;;;;;16.24;100.00;99684.48;2192515;80;20998;-86
2022/07/18 04:08:31;;;;;;;3.65;2.67;;;;;;;16.72;100.00;99690.20;2194575;80;21046;-86
2022/07/18 04:11:32;;;;;;;5.28;3.22;;;;;;;17.17;100.00;99686.63;2201798;80;21524;-87
2022/07/18 04:14:33;;;;;;;3.02;2.70;;;;;;;17.51;98.64;99688.36;2192291;79;21121;-87
2022/07/18 04:17:33;;;;;;;4.70;2.87;;;;;;;17.85;93.97;99689.27;2208206;80;21002;-87
2022/07/18 04:20:34;;;;;;;4.92;3.50;;;;;;;18.35;89.59;99689.13;2192496;80;21054;-86
2022/07/18 04:23:34;;;;;;;5.28;2.80;;;;;;;18.69;84.79;99696.03;2207508;81;21472;-87
2022/07/18 04:26:35;;;;;;;5.12;3.45;;;;;;;18.83;81.70;99694.66;2208087;80;21066;-87
2022/07/18 04:29:37;;;;;;;7.10;3.02;;;;;;;18.91;80.12;99693.91;2198933;80;21025;-87
2022/07/18 04:32:38;;;;;;;4.97;3.35;;;;;;;19.42;77.99;99691.75;2189336;80;21090;-87
2022/07/18 04:35:39;;;;;;;6.35;3.05;;;;;;;20.17;75.62;99697.98;2194492;80;21073;-87
2022/07/18 04:38:40;;;;;;;4.22;3.05;;;;;;;20.77;73.37;99700.09;2195290;80;21045;-87
2022/07/18 04:41:40;;;;;;;4.67;2.60;;;;;;;21.06;69.10;99691.87;2179261;80;21528;-86
2022/07/18 04:44:41;;;;;;;4.58;2.77;;;;;;;21.25;67.25;99693.98;2190204;79;21037;-87
2022/07/18 04:47:42;;;;;;;4.47;2.47;;;;;;;21.55;65.15;99692.14;2193053;80;21041;-87
2022/07/18 04:50:43;;;;;;;4.08;3.10;;;;;;;21.73;64.43;99697.93;2188593;80;21177;-88
2022/07/18 04:53:43;;;;;;;5.22;3.10;;;;;;;21.93;62.72;99692.28;2180763;80;21038;-87
2022/07/18 04:56:44;;;;;;;3.45;2.77;;;;;;;22.17;59.66;99693.69;2192833;80;21025;-87
2022/07/18 04:59:45;;;;;;;4.47;2.83;;;;;;;22.59;58.47;99693.05;2199474;80;21021;-88
2022/07/18 05:02:45;;;;;;;4.30;2.98;;;;;;;23.24;57.38;99690.94;2194385;80;20984;-87
2022/07/18 05:05:46;;;;;;;3.27;2.95;;;;;;;23.60;55.20;99688.94;2195480;80;21562;-86
2022/07/18 05:08:50;;;;;;;4.12;2.65;;;;;;;23.82;54.67;99684.49;2185052;80;21006;-87
2022/07/18 05:11:49;;;;;;;5.10;3.08;;;;;;;23.91;52.67;99680.08;2200464;80;21070;-87
2022/07/18 05:14:50;;;;;;;4.70;2.83;;;;;;;24.01;52.29;99679.71;2198390;80;21077;-87
2022/07/18 05:17:51;;;;;;;3.90;2.60;;;;;;;23.89;51.82;99675.52;2185901;81;20970;-87
2022/07/18 05:20:51;;;;;;;5.95;2.35;;;;;;;23.83;50.60;99678.62;2193753;80;21029;-87
2022/07/18 05:23:52;;;;;;;3.00;2.45;;;;;;;23.74;51.42;99675.53;2195687;80;21600;-87
2022/07/18 05:26:53;;;;;;;4.50;3.25;;;;;;;23.79;51.29;99676.16;2195221;80;21010;-87
2022/07/18 05:29:54;;;;;;;3.90;2.87;;;;;;;23.88;49.60;99677.38;2200056;80;21040;-87
2022/07/18 05:32:54;;;;;;;5.17;2.50;;;;;;;23.76;49.75;99684.64;2200219;80;21068;-87
2022/07/18 05:35:55;;;;;;;3.90;2.47;;;;;;;23.49;50.06;99688.42;2206459;80;21041;-87
2022/07/18 05:38:56;;;;;;;5.17;2.80;;;;;;;23.33;50.04;99690.03;2198517;81;21017;-87
2022/07/18 05:41:56;;;;;;;6.35;2.85;;;;;;;23.33;49.91;99691.36;2202852;80;21021;-87
2022/07/18 05:44:57;;;;;;;3.92;2.65;;;;;;;23.36;49.52;99692.21;2204027;80;20962;-87
2022/07/18 05:47:58;;;;;;;4.10;2.47;;;;;;;23.51;49.81;99692.50;2203208;80;21056;-87
2022/07/18 05:50:58;;;;;;;2.72;2.30;;;;;;;23.35;48.29;99691.92;2178549;80;21021;-87
2022/07/18 05:53:59;;;;;;;10.72;2.80;;;;;;;23.22;48.18;99691.67;2201428;80;20982;-87
2022/07/18 05:57:00;;;;;;;5.05;2.65;;;;;;;23.07;48.28;99698.08;2204396;80;20993;-85
2022/07/18 06:00:01;;;;;;;2.77;2.00;;;;;;;22.92;48.38;99693.23;2193749;80;21068;-87
2022/07/18 06:03:01;;;;;;;6.40;2.87;;;;;;;22.95;48.24;99692.77;2185021;80;21070;-87
2022/07/18 06:06:02;;;;;;;4.42;2.90;;;;;;;22.86;48.93;99691.52;2198963;80;21544;-87
2022/07/18 06:09:03;;;;;;;3.05;2.70;;;;;;;22.70;50.01;99691.69;2187098;81;21050;-88
2022/07/18 06:12:04;;;;;;;3.17;2.10;;;;;;;22.63;49.96;99688.33;2195235;80;21045;-87
2022/07/18 06:15:04;;;;;;;3.70;2.30;;;;;;;22.68;49.37;99688.97;2208088;80;21591;-88
2022/07/18 06:18:05;;;;;;;7.05;2.80;;;;;;;22.56;49.72;99695.64;2208218;79;21573;-88
2022/07/18 06:21:06;;;;;;;3.65;2.42;;;;;;;22.39;50.28;99698.20;2195267;80;21067;-88
2022/07/18 06:24:06;;;;;;;3.60;1.95;;;;;;;22.36;50.67;99698.67;2206835;80;21025;-87
2022/07/18 06:27:07;;;;;;;4.15;2.02;;;;;;;22.35;51.13;99699.72;2189992;80;20975;-87
2022/07/18 06:30:09;;;;;;;4.00;2.83;;;;;;;22.38;50.86;99699.25;2202580;80;21071;-85
2022/07/18 06:33:10;;;;;;;3.60;2.15;;;;;;;22.44;50.99;99701.52;2209152;81;21005;-84
2022/07/18 06:36:14;;;;;;;3.47;2.50;;;;;;;22.25;51.24;99703.48;2196856;79;21069;-85
2022/07/18 06:39:18;;;;;;;3.72;2.58;;;;;;;22.30;51.64;99702.26;2208093;81;21584;-84
2022/07/18 06:42:17;;;;;;;2.42;2.00;;;;;;;22.42;51.35;99700.95;2206496;81;21549;-85
2022/07/18 06:45:18;;;;;;;5.50;2.08;;;;;;;22.46;51.45;99704.76;2200840;80;21045;-85
2022/07/18 06:48:18;;;;;;;3.30;1.92;;;;;;;22.45;50.15;99704.47;2175237;80;21072;-85
2022/07/18 06:51:19;;;;;;;3.27;1.92;;;;;;;22.33;50.57;99709.01;2203552;81;20990;-83
2022/07/18 06:54:20;;;;;;;3.08;2.17;;;;;;;22.28;50.66;99702.20;2201585;80;21005;-84
2022/07/18 06:57:21;;;;;;;5.30;3.30;;;;;;;22.13;50.32;99704.83;2204797;81;20974;-84
2022/07/18 07:00:22;;;;;;;13.75;2.80;;;;;;;21.98;51.43;99705.75;2191650;79;21021;-86
2022/07/18 07:03:23;;;;;;;3.52;1.57;;;;;;;22.05;51.54;99701.66;2201851;80;21080;-87
2022/07/18 07:06:23;;;;;;;2.10;1.52;;;;;;;22.07;50.80;99704.41;2201859;80;21548;-86
2022/07/18 07:09:24;;;;;;;2.47;1.57;;;;;;;22.01;50.07;99703.14;2208996;80;21532;-89
2022/07/18 07:12:25;;;;;;;4.75;2.35;;;;;;;21.96;50.96;99700.37;2195058;80;20951;-85
2022/07/18 07:15:25;;;;;;;2.92;1.37;;;;;;;21.85;50.91;99700.12;2197026;80;20994;-85
2022/07/18 07:18:26;;;;;;;4.17;2.10;;;;;;;21.86;51.01;99699.60;2194683;80;21075;-85
2022/07/18 07:21:27;;;;;;;3.30;2.27;;;;;;;21.93;51.27;99696.28;2201205;80;21045;-84
2022/07/18 07:24:28;;;;;;;2.98;1.40;;;;;;;21.96;51.31;99701.70;2193865;80;21068;-85
2022/07/18 07:27:28;;;;;;;3.37;2.15;;;;;;;21.99;50.54;99702.05;2200059;80;21057;-85
2022/07/18 07:30:29;;;;;;;5.47;2.33;;;;;;;21.96;50.89;99694.52;2194507;80;20994;-86
2022/07/18 07:33:30;;;;;;;3.52;1.42;;;;;;;22.03;51.41;99696.53;2183845;80;21064;-87
2022/07/18 07:36:30;;;;;;;3.47;1.50;;;;;;;21.91;49.97;99692.23;2189243;80;21041;-85
2022/07/18 07:39:31;;;;;;;3.22;1.65;;;;;;;21.79;50.23;99693.03;2196361;80;21081;-84
2022/07/18 07:42:32;;;;;;;2.98;1.35;;;;;;;21.65;50.08;99698.25;2203439;80;21075;-85
2022/07/18 07:45:33;;;;;;;1.67;1.57;;;;;;;21.56;49.70;99700.95;2192207;80;21268;-85
2022/07/18 07:48:33;;;;;;;4.37;1.67;;;;;;;21.38;48.43;99702.33;2206610;80;22210;-84
2022/07/18 07:51:36;;;;;;;2.67;1.65;;;;;;;21.19;49.18;99705.00;2207003;80;21524;-85
2022/07/18 07:54:38;;;;;;;2.15;1.80;;;;;;;21.19;49.99;99689.55;2202626;80;21595;-84
2022/07/18 07:57:39;;;;;;;2.87;1.72;;;;;;;21.21;49.02;99698.95;2193161;80;21038;-83
2022/07/18 08:00:40;;;;;;;2.58;1.60;;;;;;;21.26;49.70;99696.94;2195768;81;21073;-84
2022/07/18 08:03:40;;;;;;;4.35;1.70;;;;;;;21.39;50.06;99694.11;2192771;80;21666;-85
2022/07/18 08:06:41;;;;;;;2.98;1.70;;;;;;;21.42;49.21;99692.34;2202792;80;21029;-84
2022/07/18 08:09:42;;;;;;;2.47;1.32;;;;;;;21.43;48.77;99691.83;2208643;80;21622;-85
2022/07/18 08:12:43;;;;;;;4.62;1.80;;;;;;;21.50;49.31;99686.70;2181941;80;21099;-84
2022/07/18 08:15:43;;;;;;;2.90;1.90;;;;;;;21.56;48.06;99691.62;2192298;80;21057;-85
2022/07/18 08:18:44;;;;;;;1.50;1.37;;;;;;;21.60;48.70;99682.67;2204668;80;21659;-85
2022/07/18 08:21:45;;;;;;;2.17;1.55;;;;;;;21.68;47.58;99675.16;2195147;80;21003;-85
2022/07/18 08:24:46;;;;;;;4.08;1.92;;;;;;;21.79;48.31;99682.37;2199021;79;21014;-85
2022/07/18 08:27:48;;;;;;;3.85;1.57;;;;;;;21.82;47.82;99682.42;2208652;80;21077;-84
2022/07/18 08:30:53;;;;;;;2.87;1.62;;;;;;;21.92;48.03;99680.00;2077736;84;21127;-83
2022/07/18 08:33:54;;;;;;;3.35;1.50;;;;;;;21.98;47.04;99683.09;2055257;86;21679;-84
2022/07/18 08:36:55;;;;;;;1.67;1.57;;;;;;;21.98;47.82;99680.95;2048798;86;21652;-84
2022/07/18 08:39:58;;;;;;;1.60;1.50;;;;;;;22.01;47.10;99681.81;2037199;86;21155;-84
2022/07/18 08:43:01;;;;;;;2.17;1.52;;;;;;;21.97;46.89;99679.33;2055453;86;21659;-84
2022/07/18 08:46:02;;;;;;;1.77;1.57;;;;;;;21.90;46.77;99671.95;2049397;86;21064;-84
2022/07/18 08:49:03;;;;;;;8.58;2.35;;;;;;;21.92;47.04;99675.19;2048890;86;21559;-84
2022/07/18 08:52:06;;;;;;;2.77;2.10;;;;;;;22.01;47.01;99677.28;2060990;86;21729;-85
2022/07/18 08:55:11;;;;;;;2.30;2.05;;;;;;;22.02;47.39;99670.91;2059666;86;21727;-84
2022/07/18 08:58:19;;;;;;;1.52;1.27;;;;;;;22.03;46.12;99677.05;2032091;86;21756;-85
2022/07/18 09:01:24;;;;;;;3.62;1.72;;;;;;;21.91;45.90;99679.71;2052370;86;21103;-85
2022/07/18 09:04:24;;;;;;;1.77;1.45;;;;;;;21.80;46.25;99683.98;2061078;86;21647;-85
2022/07/18 09:07:25;;;;;;;2.87;1.60;;;;;;;21.88;47.22;99680.70;2053113;86;21061;-85
2022/07/18 09:10:28;;;;;;;2.22;1.45;;;;;;;22.02;46.29;99693.58;2061133;86;21032;-85
2022/07/18 09:13:29;;;;;;;4.75;1.52;;;;;;;22.04;46.38;99685.37;2093846;85;21126;-84
2022/07/18 09:16:30;;;;;;;3.70;1.42;;;;;;;22.11;46.56;99686.08;2093985;84;21071;-84
2022/07/18 09:19:30;;;;;;;1.57;1.22;;;;;;;22.13;46.85;99683.49;2069604;86;21072;-84
2022/07/18 09:22:31;;;;;;;2.87;1.75;;;;;;;22.19;45.79;99685.73;2067899;86;20981;-83
2022/07/18 09:25:32;;;;;;;6.37;1.60;;;;;;;22.13;46.08;99679.49;2067441;86;20996;-87
2022/07/18 09:31:35;;;;;;;2.17;1.35;;;;;;;22.31;46.94;99674.56;2086216;85;21033;-84
2022/07/18 09:34:36;;;;;;;1.62;1.52;;;;;;;22.46;47.62;99672.73;2054169;86;21193;-84
2022/07/18 09:37:40;;;;;;;2.08;1.32;;;;;;;22.55;46.53;99677.20;2083849;84;21566;-86
2022/07/18 09:40:40;;;;;;;2.77;1.40;;;;;;;22.54;46.40;99666.23;2082140;84;21032;-88
2022/07/18 09:43:41;;;;;;;3.45;1.87;;;;;;;22.60;47.67;99674.13;2084324;85;21092;-84
2022/07/18 09:46:41;;;;;;;3.33;1.47;;;;;;;22.61;46.94;99674.94;2077649;85;21063;-85
2022/07/18 09:49:42;;;;;;;1.30;1.15;;;;;;;22.60;46.25;99682.66;2074840;85;21027;-86
2022/07/18 09:52:43;;;;;;;1.90;1.25;;;;;;;22.64;47.20;99667.78;2084498;85;21049;-84
2022/07/18 09:55:44;;;;;;;1.37;1.27;;;;;;;22.73;47.05;99669.57;2084424;85;21116;-85
2022/07/18 09:58:45;;;;;;;2.52;1.35;;;;;;;22.80;46.90;99668.92;2086792;84;21053;-86
2022/07/18 10:01:45;;;;;;;1.52;1.42;;;;;;;22.83;46.16;99668.44;2085289;84;21678;-86
2022/07/18 10:04:46;;;;;;;3.67;1.50;;;;;;;22.84;47.18;99668.23;2086003;85;21060;-82
2022/07/18 10:07:47;;;;;;;2.67;1.22;;;;;;;22.91;47.31;99674.78;2090165;85;21513;-84
2022/07/18 10:10:48;;;;;;;1.75;1.65;;;;;;;22.95;46.56;99671.91;2085780;85;21116;-81
2022/07/18 10:13:48;;;;;;;5.15;1.57;;;;;;;23.01;46.56;99666.16;2086918;85;21098;-85
2022/07/18 10:16:49;;;;;;;2.75;1.62;;;;;;;23.06;46.59;99661.73;2082408;83;21220;-83
2022/07/18 10:19:50;;;;;;;1.85;1.40;;;;;;;23.09;45.34;99667.92;2085109;85;21063;-82
2022/07/18 10:22:51;;;;;;;2.30;1.12;;;;;;;23.08;45.21;99668.17;2086554;85;21520;-84
2022/07/18 10:25:51;;;;;;;1.47;0.85;;;;;;;22.96;44.39;99672.22;2082693;85;21091;-81
2022/07/18 10:28:52;;;;;;;2.83;1.37;;;;;;;22.96;45.04;99665.02;2106316;83;21028;-85
2022/07/18 10:31:53;;;;;;;2.25;1.17;;;;;;;22.89;44.97;99672.34;2151709;80;21533;-85
2022/07/18 10:34:54;;;;;;;2.08;1.37;;;;;;;22.77;43.99;99662.70;2114319;83;21144;-85
2022/07/18 10:37:54;;;;;;;2.40;1.32;;;;;;;22.68;44.62;99659.09;2097003;83;21074;-87
2022/07/18 10:40:55;;;;;;;1.07;1.07;;;;;;;22.77;45.43;99660.03;2153363;82;21506;-86
2022/07/18 10:43:56;;;;;;;1.25;1.15;;;;;;;22.90;46.06;99663.81;2158304;83;20989;-78
2022/07/18 10:46:57;;;;;;;1.62;1.20;;;;;;;23.01;45.38;99661.62;2153812;82;21040;-81
2022/07/18 10:49:57;;;;;;;2.98;2.15;;;;;;;23.10;45.30;99654.85;2158641;82;21054;-85
2022/07/18 10:52:58;;;;;;;2.30;1.00;;;;;;;23.18;44.73;99653.67;2147631;82;21079;-82
2022/07/18 10:55:59;;;;;;;3.75;1.30;;;;;;;23.13;44.26;99651.70;2155897;82;20994;-82
2022/07/18 10:59:00;;;;;;;1.35;1.10;;;;;;;23.10;44.41;99650.84;2156778;82;21025;-84
2022/07/18 11:02:01;;;;;;;2.60;1.20;;;;;;;23.17;44.65;99651.52;2152256;82;21548;-87
2022/07/18 11:05:02;;;;;;;1.32;1.22;;;;;;;23.24;44.04;99650.05;2149364;82;21405;-86
2022/07/18 11:08:02;;;;;;;1.90;1.00;;;;;;;23.18;43.39;99642.98;2153228;82;21053;-84
2022/07/18 11:11:03;;;;;;;2.25;1.30;;;;;;;23.13;43.92;99643.69;2151360;82;21037;-86
2022/07/18 11:14:04;;;;;;;1.55;1.45;;;;;;;23.14;44.26;99637.32;2152662;82;21506;-86
2022/07/18 11:17:05;;;;;;;1.98;1.27;;;;;;;23.21;44.09;99630.47;2152105;82;21003;-85
2022/07/18 11:20:06;;;;;;;2.22;1.15;;;;;;;23.25;44.74;99624.95;2155311;82;21022;-87
2022/07/18 11:23:06;;;;;;;1.75;1.37;;;;;;;23.31;44.51;99626.64;2151142;82;21013;-87
2022/07/18 11:26:08;;;;;;;1.15;1.05;;;;;;;23.40;44.92;99621.72;2147966;82;21034;-87
2022/07/18 11:29:09;;;;;;;3.17;1.17;;;;;;;23.49;44.32;99617.07;2151967;82;21568;-86
2022/07/18 11:32:10;;;;;;;2.80;1.60;;;;;;;23.65;45.20;99613.35;2154399;81;21076;-86
2022/07/18 11:35:11;;;;;;;3.67;1.20;;;;;;;23.79;44.84;99615.47;2150169;82;21610;-87
2022/07/18 11:38:12;;;;;;;0.98;0.98;;;;;;;23.93;44.42;99606.57;2135523;82;21163;-87
2022/07/18 11:41:13;;;;;;;2.35;1.50;;;;;;;24.09;43.08;99610.28;2147749;82;21038;-85
2022/07/18 11:44:14;;;;;;;2.12;1.30;;;;;;;24.30;44.38;99602.80;2154459;82;21065;-88
2022/07/18 11:47:16;;;;;;;1.17;1.02;;;;;;;24.50;43.38;99611.66;2153973;82;20994;-88
2022/07/18 11:50:17;;;;;;;1.87;1.37;;;;;;;24.59;42.89;99600.79;2153131;82;21029;-88
2022/07/18 11:53:18;;;;;;;4.00;1.40;;;;;;;24.77;43.65;99604.20;2152583;82;21350;-87
2022/07/18 11:56:19;;;;;;;1.27;1.00;;;;;;;24.85;41.69;99597.87;2151731;82;21053;-84
2022/07/18 11:59:19;;;;;;;1.62;1.12;;;;;;;24.88;39.85;99605.43;2158600;82;20967;-85
2022/07/18 12:02:20;;;;;;;1.27;0.85;;;;;;;24.89;39.33;99601.69;2152192;82;21010;-83
2022/07/18 12:05:21;;;;;;;2.70;1.25;;;;;;;24.83;39.72;99596.52;2152025;82;21493;-84
2022/07/18 12:08:22;;;;;;;2.17;1.07;;;;;;;24.81;40.23;99590.61;2144941;82;21045;-84
2022/07/18 12:11:23;;;;;;;1.80;1.10;;;;;;;25.00;40.80;99587.06;2157424;82;21026;-85
2022/07/18 12:14:23;;;;;;;1.20;1.10;;;;;;;25.32;41.02;99587.11;2152015;82;20986;-85
2022/07/18 12:17:24;;;;;;;1.30;1.20;;;;;;;25.64;40.16;99587.92;2148096;82;21033;-87
2022/07/18 12:20:25;;;;;;;1.32;0.85;;;;;;;25.72;38.98;99588.02;2152634;82;21003;-86
2022/07/18 12:23:26;;;;;;;2.10;1.20;;;;;;;25.76;39.17;99588.56;2154378;83;21022;-87
2022/07/18 12:26:27;;;;;;;4.83;1.80;;;;;;;25.88;39.88;99591.59;2155674;82;21025;-86
2022/07/18 12:29:28;;;;;;;1.85;1.52;;;;;;;26.07;39.81;99586.09;2150958;82;21129;-86
2022/07/18 12:32:29;;;;;;;2.47;1.80;;;;;;;26.31;39.79;99587.28;2151321;82;21073;-87
2022/07/18 12:35:31;;;;;;;1.47;1.40;;;;;;;26.51;39.58;99583.09;2154004;82;21515;-86
2022/07/18 12:38:31;;;;;;;1.52;1.25;;;;;;;26.57;38.76;99588.23;2147793;82;21014;-86
2022/07/18 12:41:32;;;;;;;1.32;1.20;;;;;;;26.54;37.98;99589.30;2152456;82;21029;-85
2022/07/18 12:44:33;;;;;;;1.75;1.25;;;;;;;26.53;38.59;99598.42;2150972;82;21014;-85
2022/07/18 12:47:34;;;;;;;1.45;1.35;;;;;;;26.56;38.83;99587.95;2153368;82;21061;-83
2022/07/18 12:50:34;;;;;;;4.03;1.55;;;;;;;26.60;38.47;99590.37;2154864;82;21049;-85
2022/07/18 12:53:35;;;;;;;1.82;1.10;;;;;;;26.60;39.17;99583.66;2156282;83;21054;-84
2022/07/18 12:56:36;;;;;;;1.35;0.90;;;;;;;26.55;38.52;99586.34;2151309;82;21076;-82
2022/07/18 12:59:37;;;;;;;1.45;1.20;;;;;;;26.32;38.16;99588.89;2147260;82;21033;-86
2022/07/18 13:02:37;;;;;;;1.60;1.25;;;;;;;26.32;38.16;99588.89;2146888;82;20983;-85
2022/07/18 13:05:38;;;;;;;1.45;1.42;;;;;;;26.13;38.71;99578.87;2146951;82;21587;-86
2022/07/18 13:08:39;;;;;;;2.02;1.67;;;;;;;26.10;39.29;99576.17;2157863;82;20971;-85
2022/07/18 13:11:40;;;;;;;2.37;1.80;;;;;;;26.13;39.41;99574.84;2147982;82;21025;-84
2022/07/18 13:14:41;;;;;;;1.87;1.35;;;;;;;26.14;39.23;99573.77;2140120;82;21026;-85
2022/07/18 13:17:42;;;;;;;3.47;3.17;;;;;;;26.19;39.36;99565.75;2150827;82;21013;-84
2022/07/18 13:20:43;;;;;;;2.02;1.92;;;;;;;26.23;39.63;99558.78;2150121;82;21081;-86
2022/07/18 13:23:44;;;;;;;1.50;1.32;;;;;;;26.37;39.01;99562.62;2153972;83;21556;-86
2022/07/18 13:26:45;;;;;;;5.08;1.40;;;;;;;26.59;38.91;99563.79;2144289;82;21070;-86
2022/07/18 13:29:46;;;;;;;1.45;1.05;;;;;;;26.73;37.17;99553.38;2158766;82;21050;-85
2022/07/18 13:32:47;;;;;;;1.80;1.12;;;;;;;26.54;37.16;99555.20;2146950;82;21099;-85
2022/07/18 13:35:47;;;;;;;1.47;1.37;;;;;;;26.46;37.65;99554.90;2149209;82;21513;-86
2022/07/18 13:38:48;;;;;;;4.37;1.17;;;;;;;26.53;38.04;99550.91;2154823;83;21065;-86
2022/07/18 13:41:50;;;;;;;2.72;1.17;;;;;;;26.58;37.59;99542.04;2152687;82;21006;-87
2022/07/18 13:44:51;;;;;;;1.20;1.10;;;;;;;26.63;38.71;99540.19;2147546;82;21605;-85
2022/07/18 13:47:51;;;;;;;1.25;1.02;;;;;;;26.70;38.99;99541.28;2147324;82;21025;-86
2022/07/18 13:50:52;;;;;;;1.17;1.00;;;;;;;26.71;38.52;99538.06;2155170;82;21057;-86
2022/07/18 13:53:56;;;;;;;2.00;1.80;;;;;;;26.76;38.94;99538.05;2150101;82;21018;-87
2022/07/18 13:56:55;;;;;;;1.02;1.00;;;;;;;26.73;38.98;99535.37;2154510;82;21078;-87
2022/07/18 13:59:56;;;;;;;1.60;1.12;;;;;;;26.54;39.03;99529.69;2151852;82;21073;-86
2022/07/18 14:02:57;;;;;;;2.22;1.87;;;;;;;26.39;39.40;99529.63;2158412;82;21003;-87
2022/07/18 14:05:58;;;;;;;1.67;1.40;;;;;;;26.27;40.04;99527.15;2157497;83;21014;-86
2022/07/18 14:08:58;;;;;;;2.17;1.22;;;;;;;26.25;40.13;99529.30;2146008;82;21025;-88
2022/07/18 14:11:59;;;;;;;1.30;1.20;;;;;;;26.25;39.96;99529.30;2151800;82;21499;-86
2022/07/18 14:15:00;;;;;;;2.17;1.15;;;;;;;26.26;39.44;99532.78;2134540;82;21081;-84